Time;durP1;ratioP1;P1;durP2;ratioP2;P2;SDS_P1;SDS_P2;PMS_P1;PMS_P2;Temp;Humidity;BMP_temperature;BMP_pressure;BME280_temperature;BME280_humidity;BME280_pressure;Samples;Min_cycle;Max_cycle;Signal;HPM_P1;HPM_P2
2022/05/08 00:02:23;;;;;;;15.95;13.25;;;12.80;99.90;;;;;;5106731;28;20418;-65
2022/05/08 00:04:53;;;;;;;17.00;12.88;;;12.80;99.90;;;;;;5101517;28;20563;-65
2022/05/08 00:07:22;;;;;;;17.70;12.90;;;12.80;99.90;;;;;;5104692;28;20181;-66
2022/05/08 00:09:49;;;;;;;16.10;13.50;;;12.70;99.90;;;;;;5101753;28;20542;-65
2022/05/08 00:12:18;;;;;;;15.27;13.13;;;12.70;99.90;;;;;;5101617;28;20039;-64
2022/05/08 00:14:45;;;;;;;15.68;13.10;;;12.60;99.90;;;;;;5100728;28;20451;-65
2022/05/08 00:17:13;;;;;;;17.85;13.52;;;12.60;99.90;;;;;;5100636;28;20071;-65
2022/05/08 00:19:43;;;;;;;16.58;13.98;;;12.60;99.90;;;;;;5104748;27;20123;-65
2022/05/08 00:22:11;;;;;;;16.38;12.98;;;12.50;99.90;;;;;;5091304;28;20455;-65
2022/05/08 00:25:02;;;;;;;18.67;14.10;;;12.50;99.90;;;;;;5098175;28;20128;-65
2022/05/08 00:27:30;;;;;;;18.13;13.60;;;12.40;99.90;;;;;;5100510;28;20063;-64
2022/05/08 00:29:57;;;;;;;17.77;13.43;;;12.40;99.90;;;;;;5106997;28;20063;-66
2022/05/08 00:32:25;;;;;;;16.95;13.40;;;12.40;99.90;;;;;;5089018;28;20063;-65
2022/05/08 00:34:53;;;;;;;17.65;14.48;;;12.30;99.90;;;;;;5093653;28;20086;-66
2022/05/08 00:37:20;;;;;;;18.42;13.98;;;12.30;99.90;;;;;;5105716;28;20371;-66
2022/05/08 00:39:47;;;;;;;17.50;14.02;;;12.30;99.90;;;;;;5118098;28;20058;-65
2022/05/08 00:42:18;;;;;;;15.85;13.70;;;12.30;99.90;;;;;;5105347;28;20111;-64
2022/05/08 00:44:45;;;;;;;16.75;14.55;;;12.20;99.90;;;;;;5094563;28;20135;-64
2022/05/08 00:47:12;;;;;;;18.83;14.27;;;12.20;99.90;;;;;;5104272;28;20503;-64
2022/05/08 00:49:40;;;;;;;18.95;13.82;;;12.20;99.90;;;;;;5090437;28;20493;-64
2022/05/08 00:52:14;;;;;;;20.05;13.82;;;12.20;99.90;;;;;;5090167;28;20452;-65
2022/05/08 00:54:42;;;;;;;16.80;13.88;;;12.10;99.90;;;;;;5111018;28;20035;-65
2022/05/08 00:57:10;;;;;;;16.85;14.52;;;12.10;99.90;;;;;;5098368;28;20536;-66
2022/05/08 00:59:37;;;;;;;16.95;13.77;;;12.10;99.90;;;;;;5094140;28;20062;-64
2022/05/08 01:02:05;;;;;;;19.58;14.95;;;12.10;99.90;;;;;;5087511;28;20067;-65
2022/05/08 01:04:32;;;;;;;16.90;14.60;;;12.10;99.90;;;;;;5092266;28;20048;-65
2022/05/08 01:06:59;;;;;;;20.83;15.15;;;12.00;99.90;;;;;;5100918;28;20039;-65
2022/05/08 01:09:28;;;;;;;20.55;15.73;;;11.90;99.90;;;;;;5107885;28;20232;-66
2022/05/08 01:11:57;;;;;;;19.77;14.82;;;11.90;99.90;;;;;;5114559;28;20502;-65
2022/05/08 01:14:25;;;;;;;20.42;14.63;;;11.90;99.90;;;;;;5108580;28;20101;-65
2022/05/08 01:16:52;;;;;;;17.85;14.50;;;11.80;99.90;;;;;;5103716;28;20123;-65
2022/05/08 01:19:20;;;;;;;18.45;13.88;;;11.80;99.90;;;;;;5106171;28;20520;-65
2022/05/08 01:21:47;;;;;;;17.40;14.10;;;11.80;99.90;;;;;;5106500;28;20044;-66
2022/05/08 01:24:20;;;;;;;19.45;14.65;;;11.80;99.90;;;;;;5107249;28;20036;-66
2022/05/08 01:26:49;;;;;;;18.25;15.07;;;11.70;99.90;;;;;;5106862;28;20047;-66
2022/05/08 01:29:18;;;;;;;23.08;17.10;;;11.70;99.90;;;;;;5105217;28;20063;-66
2022/05/08 01:31:46;;;;;;;19.17;14.85;;;11.60;99.90;;;;;;5106566;28;20043;-66
2022/05/08 01:34:13;;;;;;;21.08;15.93;;;11.60;99.90;;;;;;5104599;28;20143;-65
2022/05/08 01:36:41;;;;;;;18.85;15.75;;;11.50;99.90;;;;;;5105726;28;20534;-65
2022/05/08 01:39:09;;;;;;;19.38;16.25;;;11.50;99.90;;;;;;5096855;28;20048;-66
2022/05/08 01:41:36;;;;;;;20.10;15.00;;;11.50;99.90;;;;;;5095123;28;20051;-66
2022/05/08 01:44:04;;;;;;;19.60;16.27;;;11.50;99.90;;;;;;5099716;28;20411;-66
2022/05/08 01:46:31;;;;;;;19.40;15.98;;;11.40;99.90;;;;;;5111014;28;20054;-65
2022/05/08 01:48:58;;;;;;;19.27;15.75;;;11.40;99.90;;;;;;5102048;28;20419;-65
2022/05/08 01:51:25;;;;;;;20.20;16.50;;;11.30;99.90;;;;;;5109630;28;20090;-65
2022/05/08 01:53:53;;;;;;;21.95;17.30;;;11.30;99.90;;;;;;5103442;28;20505;-65
2022/05/08 01:56:20;;;;;;;21.15;16.05;;;11.20;99.90;;;;;;5102279;28;20052;-66
2022/05/08 01:58:48;;;;;;;21.75;16.95;;;11.20;99.90;;;;;;5100658;28;20425;-65
2022/05/08 02:01:16;;;;;;;23.27;17.35;;;11.10;99.90;;;;;;5102254;28;20501;-66
2022/05/08 02:03:45;;;;;;;20.00;15.88;;;11.10;99.90;;;;;;5107771;28;20052;-65
2022/05/08 02:06:15;;;;;;;21.30;16.88;;;11.10;99.90;;;;;;5101201;28;20043;-65
2022/05/08 02:08:45;;;;;;;22.30;16.10;;;11.10;99.90;;;;;;5107429;28;20055;-65
2022/05/08 02:11:13;;;;;;;20.08;16.70;;;11.10;99.90;;;;;;5092057;28;20388;-66
2022/05/08 02:13:40;;;;;;;18.13;14.93;;;11.00;99.90;;;;;;5105569;28;20455;-64
2022/05/08 02:16:11;;;;;;;18.35;15.38;;;11.00;99.90;;;;;;5104691;28;20059;-65
2022/05/08 02:18:38;;;;;;;20.17;15.55;;;11.00;99.90;;;;;;5093332;27;20039;-65
2022/05/08 02:21:05;;;;;;;19.42;14.68;;;11.00;99.90;;;;;;5091903;28;20399;-65
2022/05/08 02:23:33;;;;;;;19.88;15.10;;;11.00;99.90;;;;;;5093469;28;20056;-65
2022/05/08 02:26:00;;;;;;;21.23;15.60;;;10.90;99.90;;;;;;5105219;28;20494;-66
2022/05/08 02:28:27;;;;;;;20.85;15.63;;;10.90;99.90;;;;;;5102874;28;20074;-65
2022/05/08 02:30:54;;;;;;;20.00;15.40;;;10.90;99.90;;;;;;5097038;28;20040;-66
2022/05/08 02:33:22;;;;;;;17.27;14.70;;;10.90;99.90;;;;;;5102239;28;20052;-65
2022/05/08 02:35:49;;;;;;;19.58;15.13;;;10.80;99.90;;;;;;5093052;28;20391;-65
2022/05/08 02:38:16;;;;;;;18.83;15.27;;;10.90;99.90;;;;;;5110908;27;20100;-64
2022/05/08 02:40:44;;;;;;;22.08;16.77;;;10.80;99.90;;;;;;5109940;28;20104;-65
2022/05/08 02:43:11;;;;;;;21.73;16.75;;;10.80;99.90;;;;;;5098067;28;20050;-64
2022/05/08 02:45:39;;;;;;;20.65;16.48;;;10.80;99.90;;;;;;5108319;28;20497;-66
2022/05/08 02:48:08;;;;;;;19.05;15.93;;;10.80;99.90;;;;;;5108568;27;20046;-66
2022/05/08 02:50:35;;;;;;;21.35;15.13;;;10.80;99.90;;;;;;5110404;28;20493;-65
2022/05/08 02:53:02;;;;;;;19.48;15.90;;;10.70;99.90;;;;;;5109939;28;20532;-64
2022/05/08 02:58:34;;;;;;;23.15;17.52;;;10.70;99.90;;;;;;5109671;28;20071;-65
2022/05/08 03:01:05;;;;;;;23.15;18.63;;;10.60;99.90;;;;;;5106956;28;20494;-65
2022/05/08 03:03:34;;;;;;;25.20;18.05;;;10.60;99.90;;;;;;5109643;28;20481;-66
2022/05/08 03:06:01;;;;;;;21.23;16.23;;;10.60;99.90;;;;;;5110731;28;20558;-65
2022/05/08 03:08:29;;;;;;;20.05;16.27;;;10.60;99.90;;;;;;5110723;28;20494;-66
2022/05/08 03:13:42;;;;;;;19.90;16.00;;;10.50;99.90;;;;;;5110699;28;20273;-66
2022/05/08 03:16:12;;;;;;;25.48;18.05;;;10.50;99.90;;;;;;5111183;28;20562;-66
2022/05/08 03:18:40;;;;;;;20.50;16.95;;;10.50;99.90;;;;;;5104253;27;20039;-65
2022/05/08 03:21:10;;;;;;;20.08;17.17;;;10.50;99.90;;;;;;5110180;28;20471;-65
2022/05/08 03:23:38;;;;;;;21.25;16.52;;;10.50;99.90;;;;;;5108257;28;20046;-65
2022/05/08 03:26:06;;;;;;;22.23;15.90;;;10.40;99.90;;;;;;5109906;28;20097;-66
2022/05/08 03:28:35;;;;;;;20.80;16.73;;;10.40;99.90;;;;;;5106772;27;20493;-66
2022/05/08 03:31:02;;;;;;;20.63;16.90;;;10.40;99.90;;;;;;5083205;28;20063;-64
2022/05/08 03:33:31;;;;;;;19.80;15.88;;;10.40;99.90;;;;;;5110110;28;20055;-65
2022/05/08 03:35:59;;;;;;;25.10;16.85;;;10.30;99.90;;;;;;5106723;28;20057;-65
2022/05/08 03:38:27;;;;;;;20.25;16.65;;;10.40;99.90;;;;;;5108117;28;20062;-65
2022/05/08 03:40:55;;;;;;;21.23;16.92;;;10.30;99.90;;;;;;5108718;28;20071;-65
2022/05/08 03:43:23;;;;;;;23.05;17.10;;;10.30;99.90;;;;;;5110415;28;20050;-65
2022/05/08 03:45:50;;;;;;;21.73;16.35;;;10.20;99.90;;;;;;5111056;28;20055;-65
2022/05/08 03:48:19;;;;;;;25.30;16.50;;;10.30;99.90;;;;;;5106697;28;20490;-65
2022/05/08 03:50:47;;;;;;;26.27;16.95;;;10.30;99.90;;;;;;5091387;28;20457;-65
2022/05/08 03:53:14;;;;;;;21.33;16.83;;;10.20;99.90;;;;;;5098088;28;20047;-64
2022/05/08 03:55:42;;;;;;;24.90;16.58;;;10.30;99.90;;;;;;5107346;28;20059;-65
2022/05/08 03:58:09;;;;;;;24.20;17.17;;;10.20;99.90;;;;;;5104934;28;20047;-66
2022/05/08 04:00:36;;;;;;;21.23;16.15;;;10.20;99.90;;;;;;5104863;28;20048;-65
2022/05/08 04:03:04;;;;;;;22.33;15.40;;;10.30;99.90;;;;;;5090106;28;20498;-64
2022/05/08 04:05:31;;;;;;;20.30;14.18;;;10.20;99.90;;;;;;5088934;28;20214;-64
2022/05/08 04:07:58;;;;;;;21.70;15.30;;;10.30;99.90;;;;;;5090618;28;20246;-65
2022/05/08 04:10:26;;;;;;;25.98;17.58;;;10.30;99.90;;;;;;5102397;28;20089;-65
2022/05/08 04:12:53;;;;;;;23.92;15.65;;;10.30;99.90;;;;;;5098620;28;20475;-65
2022/05/08 04:18:14;;;;;;;21.40;13.88;;;10.40;99.90;;;;;;5094422;28;20560;-65
2022/05/08 04:20:41;;;;;;;20.67;15.77;;;10.50;99.90;;;;;;5107523;27;20234;-66
2022/05/08 04:25:54;;;;;;;23.63;15.65;;;10.60;99.90;;;;;;5106042;28;20039;-65
2022/05/08 04:28:22;;;;;;;20.92;15.05;;;10.70;99.90;;;;;;5105416;28;20086;-65
2022/05/08 04:30:50;;;;;;;19.70;14.90;;;10.80;99.90;;;;;;5107708;28;20043;-65
2022/05/08 04:33:21;;;;;;;19.83;13.95;;;10.80;99.90;;;;;;5103201;28;20054;-64
2022/05/08 04:35:48;;;;;;;22.67;16.23;;;10.90;99.90;;;;;;5104710;28;20568;-66
2022/05/08 04:38:16;;;;;;;21.83;15.15;;;10.90;99.90;;;;;;5108651;28;20562;-65
2022/05/08 04:40:43;;;;;;;24.63;15.95;;;11.00;99.90;;;;;;5104990;28;20048;-65
2022/05/08 04:43:10;;;;;;;32.42;22.73;;;11.00;99.90;;;;;;5099318;28;20047;-65
2022/05/08 04:45:38;;;;;;;28.58;20.98;;;11.00;99.90;;;;;;5108256;28;20048;-64
2022/05/08 04:48:05;;;;;;;23.33;17.02;;;11.20;99.90;;;;;;5107555;28;20129;-65
2022/05/08 04:50:33;;;;;;;22.08;15.75;;;11.20;99.90;;;;;;5108327;28;20113;-66
2022/05/08 04:53:00;;;;;;;22.05;15.35;;;11.30;99.90;;;;;;5109969;28;20081;-66
2022/05/08 04:55:27;;;;;;;23.58;17.38;;;11.40;99.90;;;;;;5108944;28;20109;-65
2022/05/08 04:57:56;;;;;;;21.38;15.02;;;11.40;99.90;;;;;;5109307;28;20043;-65
2022/05/08 05:00:23;;;;;;;20.13;14.50;;;11.50;99.90;;;;;;5104979;28;20048;-65
2022/05/08 05:02:50;;;;;;;21.95;15.07;;;11.60;99.90;;;;;;5088220;28;20450;-65
2022/05/08 05:05:18;;;;;;;19.77;14.07;;;11.60;99.90;;;;;;5093337;28;20590;-65
2022/05/08 05:07:45;;;;;;;16.10;13.45;;;11.70;99.90;;;;;;5094881;28;20044;-64
2022/05/08 05:10:13;;;;;;;20.00;15.27;;;11.90;99.90;;;;;;5099581;28;20039;-64
2022/05/08 05:12:40;;;;;;;17.67;14.73;;;12.00;99.90;;;;;;5104218;28;20059;-65
2022/05/08 05:15:09;;;;;;;20.75;16.02;;;12.10;99.90;;;;;;5103761;28;20036;-66
2022/05/08 05:17:36;;;;;;;19.67;15.40;;;12.20;99.90;;;;;;5114539;28;20047;-65
2022/05/08 05:20:05;;;;;;;19.52;14.20;;;12.30;99.90;;;;;;5113260;27;20127;-64
2022/05/08 05:22:33;;;;;;;17.88;14.20;;;12.40;99.90;;;;;;5114029;28;20040;-65
2022/05/08 05:25:00;;;;;;;19.05;14.05;;;12.40;99.90;;;;;;5095975;28;20136;-66
2022/05/08 05:27:27;;;;;;;19.13;14.93;;;12.40;99.90;;;;;;5108312;28;20425;-65
2022/05/08 05:29:54;;;;;;;19.95;14.77;;;12.50;99.90;;;;;;5110255;28;20047;-65
2022/05/08 05:32:22;;;;;;;17.67;12.70;;;12.50;99.90;;;;;;5111738;28;20052;-65
2022/05/08 05:34:49;;;;;;;16.63;12.55;;;12.70;99.90;;;;;;5107659;28;20036;-65
2022/05/08 05:37:21;;;;;;;15.90;13.18;;;12.70;99.90;;;;;;5113468;28;20150;-65
2022/05/08 05:39:49;;;;;;;18.48;12.57;;;12.70;99.90;;;;;;5104617;28;20075;-65
2022/05/08 05:42:16;;;;;;;19.77;13.25;;;12.70;99.90;;;;;;5114102;28;20059;-65
2022/05/08 05:44:43;;;;;;;18.98;13.75;;;12.80;99.90;;;;;;5104050;28;20113;-65
2022/05/08 05:49:56;;;;;;;18.75;14.55;;;12.80;99.90;;;;;;5111213;28;20054;-64
2022/05/08 05:52:24;;;;;;;17.95;13.63;;;12.80;99.90;;;;;;5118732;27;20058;-66
2022/05/08 05:54:51;;;;;;;15.18;11.85;;;12.90;99.90;;;;;;5104296;27;20040;-65
2022/05/08 05:57:20;;;;;;;21.67;13.43;;;13.00;99.90;;;;;;5086952;28;20055;-65
2022/05/08 05:59:47;;;;;;;15.98;12.82;;;13.10;99.90;;;;;;5118997;27;20039;-65
2022/05/08 06:02:14;;;;;;;19.02;12.85;;;13.20;99.90;;;;;;5093786;27;20319;-64
2022/05/08 06:04:41;;;;;;;20.27;13.10;;;13.30;99.90;;;;;;5094190;28;20440;-65
2022/05/08 06:07:09;;;;;;;17.88;13.07;;;13.50;99.90;;;;;;5099592;28;20039;-65
2022/05/08 06:09:36;;;;;;;13.88;10.88;;;13.70;99.90;;;;;;5099544;27;20091;-65
2022/05/08 06:12:04;;;;;;;14.73;11.23;;;13.80;99.90;;;;;;5095315;28;20044;-65
2022/05/08 06:14:31;;;;;;;16.60;10.70;;;14.00;99.90;;;;;;5098391;28;20473;-65
2022/05/08 06:16:59;;;;;;;14.15;11.60;;;14.10;99.90;;;;;;5101252;28;20131;-65
2022/05/08 06:19:26;;;;;;;17.23;12.13;;;14.20;99.90;;;;;;5102891;27;20503;-65
2022/05/08 06:21:53;;;;;;;15.23;10.95;;;14.30;99.90;;;;;;5106083;28;20359;-65
2022/05/08 06:24:21;;;;;;;15.70;11.20;;;14.40;99.90;;;;;;5103951;28;20036;-65
2022/05/08 06:26:48;;;;;;;16.40;11.48;;;14.50;99.90;;;;;;5109242;27;20048;-66
2022/05/08 06:29:16;;;;;;;19.70;11.38;;;14.50;99.90;;;;;;5094992;28;20445;-65
2022/05/08 06:31:46;;;;;;;14.70;11.27;;;14.60;99.90;;;;;;5112210;28;20138;-65
2022/05/08 06:34:17;;;;;;;14.75;9.90;;;14.70;99.90;;;;;;5110411;28;20044;-65
2022/05/08 06:36:45;;;;;;;14.02;10.45;;;14.80;99.90;;;;;;5098184;28;20040;-66
2022/05/08 06:39:13;;;;;;;18.83;11.18;;;14.90;99.90;;;;;;5095065;28;20052;-65
2022/05/08 06:41:41;;;;;;;12.32;9.98;;;14.90;99.90;;;;;;5092591;28;20052;-65
2022/05/08 06:44:13;;;;;;;12.88;9.68;;;15.00;99.90;;;;;;5092013;28;20495;-66
2022/05/08 06:46:40;;;;;;;13.10;9.05;;;15.20;99.90;;;;;;5093258;28;20517;-64
2022/05/08 06:49:08;;;;;;;12.65;9.98;;;15.20;99.90;;;;;;5091553;28;20036;-65
2022/05/08 06:51:36;;;;;;;15.38;9.25;;;15.20;99.90;;;;;;5095875;28;20436;-65
2022/05/08 06:54:04;;;;;;;12.75;8.80;;;15.20;99.90;;;;;;5093931;28;20159;-65
2022/05/08 06:56:35;;;;;;;21.60;10.85;;;15.20;99.90;;;;;;5093805;28;20036;-65
2022/05/08 07:01:50;;;;;;;13.40;10.25;;;15.50;99.90;;;;;;5095795;28;20050;-66
2022/05/08 07:04:17;;;;;;;14.20;10.38;;;15.50;99.90;;;;;;5094116;28;20111;-65
2022/05/08 07:06:45;;;;;;;12.65;9.93;;;15.50;99.90;;;;;;5101560;28;20047;-65
2022/05/08 07:09:15;;;;;;;13.80;9.82;;;15.60;99.90;;;;;;5099816;28;20036;-65
2022/05/08 07:11:47;;;;;;;13.30;10.10;;;15.70;99.90;;;;;;5101927;28;20499;-65
2022/05/08 07:14:15;;;;;;;11.20;9.55;;;15.60;99.90;;;;;;5098587;28;20078;-65
2022/05/08 07:16:43;;;;;;;13.27;11.27;;;15.60;99.90;;;;;;5100252;28;20410;-65
2022/05/08 07:19:11;;;;;;;15.10;10.77;;;15.60;99.90;;;;;;5109122;27;20054;-65
2022/05/08 07:21:38;;;;;;;14.20;11.65;;;15.70;99.90;;;;;;5108052;27;20040;-65
2022/05/08 07:24:06;;;;;;;12.93;10.77;;;15.60;99.90;;;;;;5100703;28;20035;-64
2022/05/08 07:26:36;;;;;;;12.77;10.40;;;15.50;99.90;;;;;;5091090;28;20071;-65
2022/05/08 07:29:07;;;;;;;14.30;10.35;;;15.70;99.90;;;;;;5091424;28;20071;-65
2022/05/08 07:31:34;;;;;;;12.90;9.75;;;15.80;99.90;;;;;;5093974;28;20415;-65
2022/05/08 07:36:47;;;;;;;14.35;12.05;;;15.90;99.90;;;;;;5099734;28;20391;-65
2022/05/08 07:39:14;;;;;;;17.83;14.25;;;15.80;99.90;;;;;;5098411;28;20043;-65
2022/05/08 07:41:42;;;;;;;15.32;11.50;;;15.90;99.90;;;;;;5104762;28;20067;-65
2022/05/08 07:44:09;;;;;;;16.05;11.88;;;16.00;99.90;;;;;;5102175;28;20113;-65
2022/05/08 07:46:36;;;;;;;14.13;11.48;;;16.10;99.90;;;;;;5105167;28;20040;-65
2022/05/08 07:49:04;;;;;;;15.18;12.25;;;16.10;99.90;;;;;;5096777;28;20131;-65
2022/05/08 07:51:32;;;;;;;14.85;11.75;;;16.10;99.90;;;;;;5096081;28;20118;-65
2022/05/08 07:53:59;;;;;;;14.35;11.80;;;16.10;99.90;;;;;;5093060;28;20040;-64
2022/05/08 07:56:28;;;;;;;16.00;12.45;;;16.30;99.90;;;;;;5103427;28;20043;-65
2022/05/08 07:58:55;;;;;;;17.00;11.95;;;16.30;99.90;;;;;;5109333;27;20561;-67
2022/05/08 08:01:23;;;;;;;14.85;10.95;;;16.40;99.90;;;;;;5099244;27;20078;-65
2022/05/08 08:04:10;;;;;;;17.08;10.20;;;16.50;99.90;;;;;;5104750;28;20043;-65
2022/05/08 08:06:38;;;;;;;13.70;9.98;;;16.70;99.90;;;;;;5097899;28;20048;-64
2022/05/08 08:09:06;;;;;;;11.00;8.80;;;16.80;99.90;;;;;;5091390;28;20177;-64
2022/05/08 08:11:34;;;;;;;14.45;9.50;;;17.00;99.90;;;;;;5091895;28;20056;-65
2022/05/08 08:14:02;;;;;;;11.63;9.10;;;17.10;99.90;;;;;;5092968;28;20486;-64
2022/05/08 08:16:29;;;;;;;16.65;8.95;;;17.20;99.90;;;;;;5093483;28;20039;-66
2022/05/08 08:18:58;;;;;;;10.77;7.68;;;17.30;99.90;;;;;;5093916;28;20530;-64
2022/05/08 08:21:25;;;;;;;9.65;7.47;;;17.50;99.90;;;;;;5097916;28;20440;-64
2022/05/08 08:23:53;;;;;;;10.18;7.72;;;17.60;99.90;;;;;;5107256;28;20110;-63
2022/05/08 08:26:21;;;;;;;11.95;7.38;;;17.70;99.90;;;;;;5109502;28;20039;-64
2022/05/08 08:28:48;;;;;;;9.90;6.88;;;17.80;99.90;;;;;;5107892;28;20079;-64
2022/05/08 08:31:16;;;;;;;9.85;7.45;;;18.00;99.90;;;;;;5094429;28;20116;-64
2022/05/08 08:33:44;;;;;;;8.93;6.70;;;17.90;99.90;;;;;;5108183;28;20130;-64
2022/05/08 08:36:12;;;;;;;11.93;6.88;;;17.90;99.90;;;;;;5088876;28;20134;-63
2022/05/08 08:38:40;;;;;;;7.72;5.93;;;18.20;99.90;;;;;;5108406;28;20477;-63
2022/05/08 08:41:08;;;;;;;9.35;6.57;;;18.40;99.90;;;;;;5107402;28;20173;-64
2022/05/08 08:49:19;;;;;;;8.60;5.97;;;18.80;99.90;;;;;;5103002;28;20453;-64
2022/05/08 08:51:51;;;;;;;9.50;7.20;;;19.10;99.90;;;;;;5099789;28;20423;-66
2022/05/08 08:54:19;;;;;;;7.70;5.60;;;19.20;99.90;;;;;;5103307;28;20062;-65
2022/05/08 08:56:49;;;;;;;7.63;5.68;;;19.30;99.90;;;;;;5100286;28;20412;-65
2022/05/08 08:59:22;;;;;;;8.93;5.60;;;19.50;99.90;;;;;;5107515;27;20043;-67
2022/05/08 09:01:50;;;;;;;8.63;5.68;;;19.60;99.90;;;;;;5113922;27;20062;-66
2022/05/08 09:04:19;;;;;;;7.85;5.70;;;19.90;99.90;;;;;;5096783;28;20054;-66
2022/05/08 09:06:46;;;;;;;8.27;5.43;;;19.90;99.90;;;;;;5095163;28;20155;-66
2022/05/08 09:09:27;;;;;;;7.45;5.45;;;20.20;99.90;;;;;;5094035;28;20884;-65
2022/05/08 09:11:56;;;;;;;7.97;5.57;;;20.60;99.90;;;;;;5105320;28;20039;-65
2022/05/08 09:14:35;;;;;;;7.18;5.63;;;21.10;99.90;;;;;;5097695;28;20040;-66
2022/05/08 09:17:04;;;;;;;8.50;5.70;;;21.40;99.90;;;;;;5109558;28;20387;-65
2022/05/08 09:19:38;;;;;;;7.50;5.13;;;21.70;99.90;;;;;;5113487;27;20052;-68
2022/05/08 09:22:12;;;;;;;7.80;4.57;;;21.80;99.90;;;;;;5111323;28;20118;-66
2022/05/08 09:24:52;;;;;;;6.03;3.50;;;21.90;99.90;;;;;;5113379;28;20056;-66
2022/05/08 09:27:20;;;;;;;7.20;4.10;;;22.30;99.90;;;;;;5112996;27;20130;-66
2022/05/08 09:29:48;;;;;;;6.90;3.58;;;22.60;99.90;;;;;;5111630;28;20040;-65
2022/05/08 09:32:38;;;;;;;5.93;3.22;;;22.80;99.90;;;;;;5106132;28;20047;-65
2022/05/08 09:35:07;;;;;;;7.60;3.25;;;23.10;99.90;;;;;;5110456;28;20051;-65
2022/05/08 09:37:51;;;;;;;8.23;3.40;;;23.10;99.90;;;;;;5112283;28;20047;-65
2022/05/08 09:40:20;;;;;;;7.45;3.42;;;23.10;99.90;;;;;;5112646;28;20543;-65
2022/05/08 09:42:48;;;;;;;5.88;3.17;;;23.50;99.90;;;;;;5098491;28;20046;-64
2022/05/08 09:45:15;;;;;;;4.20;2.67;;;23.50;98.90;;;;;;5111806;28;20405;-65
2022/05/08 09:47:48;;;;;;;5.35;3.28;;;23.70;97.40;;;;;;5100667;28;20050;-65
2022/05/08 09:50:17;;;;;;;5.05;3.25;;;23.90;97.60;;;;;;5095795;28;20545;-65
2022/05/08 09:52:45;;;;;;;6.28;3.10;;;24.00;97.60;;;;;;5103714;28;20462;-66
2022/05/08 09:55:17;;;;;;;5.50;3.50;;;23.90;94.90;;;;;;5097718;28;20035;-64
2022/05/08 09:57:45;;;;;;;6.13;3.22;;;23.80;94.40;;;;;;5102984;28;20127;-65
2022/05/08 10:00:14;;;;;;;6.22;3.08;;;23.60;94.30;;;;;;5107518;28;20051;-64
2022/05/08 10:02:45;;;;;;;6.72;3.30;;;23.50;93.60;;;;;;5100899;28;20051;-64
2022/05/08 10:05:14;;;;;;;5.70;3.25;;;23.40;94.00;;;;;;5097285;28;20577;-64
2022/05/08 10:07:42;;;;;;;6.68;3.28;;;23.40;94.20;;;;;;5098664;28;20040;-65
2022/05/08 10:15:48;;;;;;;7.13;3.20;;;23.80;93.70;;;;;;5092280;28;20471;-64
2022/05/08 10:18:28;;;;;;;6.65;2.70;;;23.90;92.60;;;;;;5092648;28;20120;-64
2022/05/08 10:21:01;;;;;;;7.20;2.80;;;23.90;91.70;;;;;;5108101;28;20473;-64
2022/05/08 10:23:34;;;;;;;8.98;3.08;;;24.00;91.10;;;;;;5102741;28;20547;-65
2022/05/08 10:26:21;;;;;;;5.47;2.80;;;24.20;90.90;;;;;;5109359;28;20901;-64
2022/05/08 10:29:04;;;;;;;7.28;3.08;;;24.40;90.40;;;;;;5096633;28;20501;-64
2022/05/08 10:31:52;;;;;;;6.10;2.78;;;24.50;90.20;;;;;;5106945;28;20065;-65
2022/05/08 10:34:34;;;;;;;5.70;3.05;;;25.10;90.00;;;;;;5103742;28;20069;-65
2022/05/08 10:37:13;;;;;;;5.65;3.22;;;25.30;89.80;;;;;;5098262;28;20048;-66
2022/05/08 10:39:47;;;;;;;6.95;3.05;;;25.90;90.00;;;;;;5109145;28;20039;-64
2022/05/08 10:42:24;;;;;;;4.88;2.72;;;26.30;89.70;;;;;;5109846;28;20459;-64
2022/05/08 10:44:51;;;;;;;10.50;5.63;;;26.60;88.20;;;;;;5110633;28;20040;-64
2022/05/08 10:47:36;;;;;;;6.38;3.10;;;26.90;87.80;;;;;;5108912;28;20439;-63
2022/05/08 10:50:13;;;;;;;4.57;2.72;;;27.10;86.90;;;;;;5107139;28;20142;-63
2022/05/08 10:52:45;;;;;;;6.20;3.30;;;26.80;86.80;;;;;;5109140;28;20111;-64
2022/05/08 10:55:15;;;;;;;5.57;2.78;;;26.50;85.80;;;;;;5106371;28;20051;-64
2022/05/08 10:57:48;;;;;;;5.63;3.03;;;26.40;86.20;;;;;;5110224;28;20517;-63
2022/05/08 11:00:18;;;;;;;8.30;2.88;;;26.70;85.50;;;;;;5106633;28;20308;-67
2022/05/08 11:02:48;;;;;;;7.43;2.90;;;26.90;85.70;;;;;;5090390;28;20048;-65
2022/05/08 11:05:25;;;;;;;5.88;2.95;;;26.90;84.00;;;;;;5097811;28;20044;-63
2022/05/08 11:07:54;;;;;;;7.72;2.80;;;27.10;84.10;;;;;;5100262;28;20139;-64
2022/05/08 11:10:26;;;;;;;4.65;2.85;;;27.10;82.20;;;;;;5091358;27;20531;-63
2022/05/08 11:13:09;;;;;;;5.38;3.00;;;26.80;82.90;;;;;;5104086;27;20134;-65
2022/05/08 11:15:43;;;;;;;4.90;2.40;;;26.80;82.80;;;;;;5096724;27;20442;-64
2022/05/08 11:18:20;;;;;;;5.03;2.30;;;26.90;81.40;;;;;;5097469;28;20040;-64
2022/05/08 11:21:08;;;;;;;4.65;2.30;;;26.90;80.90;;;;;;5116237;27;20049;-65
2022/05/08 11:23:41;;;;;;;5.32;2.63;;;27.10;80.50;;;;;;5099583;28;20415;-65
2022/05/08 11:26:12;;;;;;;3.88;2.60;;;27.30;81.00;;;;;;5102923;28;20043;-65
2022/05/08 11:28:52;;;;;;;4.13;2.58;;;27.50;80.30;;;;;;5106019;27;20043;-65
2022/05/08 11:31:20;;;;;;;4.43;2.60;;;27.50;80.00;;;;;;5095806;28;20035;-65
2022/05/08 11:36:50;;;;;;;7.00;2.60;;;27.70;79.60;;;;;;5042792;28;20057;-65
2022/05/08 11:39:19;;;;;;;5.25;2.70;;;27.80;78.20;;;;;;5021705;28;20053;-65
2022/05/08 11:41:49;;;;;;;5.22;2.70;;;28.20;77.40;;;;;;5028957;28;20140;-67
2022/05/08 11:44:16;;;;;;;8.75;2.65;;;28.10;76.60;;;;;;5035741;28;20045;-65
2022/05/08 11:46:45;;;;;;;6.13;2.50;;;28.40;77.60;;;;;;5038633;28;20119;-65
2022/05/08 11:49:16;;;;;;;4.35;2.30;;;28.50;76.20;;;;;;5040936;28;20554;-64
2022/05/08 11:51:45;;;;;;;5.68;2.58;;;28.90;76.60;;;;;;5033196;28;20117;-64
2022/05/08 11:54:19;;;;;;;5.15;2.60;;;29.00;75.60;;;;;;5027859;28;20045;-64
2022/05/08 11:56:51;;;;;;;8.05;2.60;;;29.10;73.30;;;;;;5031023;28;20581;-65
2022/05/08 11:59:23;;;;;;;7.45;3.15;;;29.80;72.90;;;;;;5037749;28;20144;-64
2022/05/08 12:01:53;;;;;;;4.57;2.92;;;29.80;72.20;;;;;;5043902;28;20586;-64
2022/05/08 12:04:26;;;;;;;4.85;2.95;;;29.90;71.40;;;;;;5036835;28;20531;-64
2022/05/08 12:07:07;;;;;;;5.55;2.70;;;29.90;70.90;;;;;;5039314;28;20096;-64
2022/05/08 12:09:43;;;;;;;4.45;2.50;;;30.20;70.30;;;;;;5045196;28;20164;-64
2022/05/08 12:12:30;;;;;;;4.05;2.55;;;30.40;70.60;;;;;;5094413;28;20044;-65
2022/05/08 12:15:06;;;;;;;5.45;2.65;;;29.90;69.70;;;;;;5095486;28;20140;-65
2022/05/08 12:17:43;;;;;;;4.03;2.58;;;29.30;70.20;;;;;;5069691;28;20587;-65
2022/05/08 12:20:19;;;;;;;5.78;3.25;;;28.60;72.20;;;;;;5094621;28;20056;-64
2022/05/08 12:23:07;;;;;;;5.55;2.88;;;28.10;72.60;;;;;;5090065;28;20465;-65
2022/05/08 12:25:41;;;;;;;5.47;2.65;;;27.80;72.40;;;;;;5095973;28;20460;-65
2022/05/08 12:28:13;;;;;;;7.72;3.05;;;27.90;74.50;;;;;;5096182;28;20519;-66
2022/05/08 12:30:40;;;;;;;5.53;2.92;;;28.10;72.50;;;;;;5096982;28;20044;-67
2022/05/08 12:33:08;;;;;;;4.15;2.55;;;28.80;71.70;;;;;;5103822;28;20064;-67
2022/05/08 12:35:36;;;;;;;4.22;2.55;;;29.60;71.00;;;;;;5091812;28;20068;-67
2022/05/08 12:38:03;;;;;;;6.47;2.58;;;30.00;70.20;;;;;;5093981;28;20079;-68
2022/05/08 12:40:31;;;;;;;4.80;2.78;;;30.40;68.70;;;;;;5091769;28;20040;-66
2022/05/08 12:43:03;;;;;;;4.63;2.55;;;30.50;67.90;;;;;;5094997;28;20519;-67
2022/05/08 12:45:31;;;;;;;5.25;2.30;;;30.70;67.80;;;;;;5100398;28;20502;-68
2022/05/08 12:47:58;;;;;;;4.38;2.40;;;30.80;67.00;;;;;;5093884;28;20487;-67
2022/05/08 12:50:26;;;;;;;4.15;2.30;;;30.90;67.10;;;;;;5109126;28;20070;-68
2022/05/08 12:52:56;;;;;;;3.95;2.30;;;30.90;67.90;;;;;;5097438;28;20072;-67
2022/05/08 12:55:25;;;;;;;5.63;2.75;;;31.70;65.80;;;;;;5099543;28;20032;-68
2022/05/08 13:00:41;;;;;;;4.22;2.20;;;32.00;64.30;;;;;;5090037;28;20059;-67
2022/05/08 13:03:11;;;;;;;3.78;2.20;;;31.90;63.80;;;;;;5095707;28;20075;-67
2022/05/08 13:05:40;;;;;;;6.63;2.58;;;32.00;63.00;;;;;;5088075;28;20075;-68
2022/05/08 13:08:10;;;;;;;3.72;2.13;;;32.40;62.90;;;;;;5101130;28;20040;-67
2022/05/08 13:10:37;;;;;;;4.28;2.20;;;32.80;62.00;;;;;;5107796;28;20063;-67
2022/05/08 13:13:04;;;;;;;5.15;2.55;;;33.00;61.60;;;;;;5097696;28;20064;-67
2022/05/08 13:15:32;;;;;;;5.32;2.13;;;32.70;61.50;;;;;;5099999;28;20051;-68
2022/05/08 13:18:00;;;;;;;5.78;2.70;;;32.50;60.60;;;;;;5093857;28;20542;-68
2022/05/08 13:20:28;;;;;;;4.47;1.95;;;31.90;60.80;;;;;;5105576;28;20051;-67
2022/05/08 13:22:55;;;;;;;5.07;2.15;;;31.30;61.30;;;;;;5098244;28;20039;-68
2022/05/08 13:25:23;;;;;;;6.20;2.55;;;31.10;61.90;;;;;;5092919;28;20075;-68